createdAt,value
2018-07-02T00:01:15.865Z,20.90
2018-07-02T00:03:52.849Z,20.90
2018-07-02T00:07:46.112Z,20.80
2018-07-02T00:10:21.664Z,20.80
2018-07-02T00:13:01.415Z,20.70
2018-07-02T00:15:39.313Z,20.70
2018-07-02T00:18:21.120Z,20.60
2018-07-02T00:20:57.461Z,20.60
2018-07-02T00:23:31.275Z,20.50
2018-07-02T00:26:06.106Z,20.50
2018-07-02T00:28:40.526Z,20.50
2018-07-02T00:31:16.472Z,20.50
2018-07-02T00:33:50.702Z,20.50
2018-07-02T00:36:40.023Z,20.50
2018-07-02T00:39:18.898Z,20.50
2018-07-02T00:42:07.651Z,20.40
2018-07-02T00:44:43.915Z,20.40
2018-07-02T00:47:17.209Z,20.40
2018-07-02T00:49:51.735Z,20.30
2018-07-02T00:52:25.724Z,20.30
2018-07-02T00:55:01.293Z,20.20
2018-07-02T00:57:37.144Z,20.20
2018-07-02T01:00:19.355Z,20.20
2018-07-02T01:02:52.030Z,20.10
2018-07-02T01:05:26.242Z,20.10
2018-07-02T01:08:00.389Z,20.00
2018-07-02T01:10:34.571Z,20.00
2018-07-02T01:13:07.833Z,20.00
2018-07-02T01:15:42.697Z,19.90
2018-07-02T01:18:17.574Z,19.90
2018-07-02T01:20:51.616Z,19.90
2018-07-02T01:23:26.063Z,19.90
2018-07-02T01:26:01.402Z,19.80
2018-07-02T01:28:35.009Z,19.70
2018-07-02T01:31:09.015Z,19.70
2018-07-02T01:33:43.858Z,19.70
2018-07-02T01:36:18.474Z,19.70
2018-07-02T01:38:51.440Z,19.70
2018-07-02T01:41:26.603Z,19.60
2018-07-02T01:44:02.558Z,19.30
2018-07-02T01:46:36.228Z,19.50
2018-07-02T01:49:11.502Z,19.50
2018-07-02T01:51:46.638Z,19.40
2018-07-02T01:54:20.337Z,19.40
2018-07-02T01:56:53.304Z,19.40
2018-07-02T01:59:40.750Z,19.40
2018-07-02T02:02:15.990Z,19.30
2018-07-02T02:04:51.434Z,19.30
2018-07-02T02:07:24.834Z,19.30
2018-07-02T02:09:57.818Z,19.20
2018-07-02T02:12:43.298Z,19.20
2018-07-02T02:15:16.275Z,19.20
2018-07-02T02:17:51.501Z,19.10
2018-07-02T02:20:24.788Z,19.10
2018-07-02T02:22:58.524Z,19.10
2018-07-02T02:25:32.333Z,19.10
2018-07-02T02:28:05.828Z,19.00
2018-07-02T02:30:39.020Z,19.00
2018-07-02T02:33:12.629Z,19.00
2018-07-02T02:35:48.685Z,19.00
2018-07-02T02:38:22.995Z,19.00
2018-07-02T02:40:57.318Z,18.90
2018-07-02T02:43:31.849Z,18.90
2018-07-02T02:46:05.528Z,18.90
2018-07-02T02:48:41.706Z,18.90
2018-07-02T02:51:16.109Z,18.80
2018-07-02T02:53:51.673Z,18.80
2018-07-02T02:56:25.680Z,18.80
2018-07-02T02:59:00.207Z,18.80
2018-07-02T03:01:34.429Z,18.70
2018-07-02T03:04:08.538Z,18.70
2018-07-02T03:06:42.733Z,18.70
2018-07-02T03:09:18.302Z,18.80
2018-07-02T03:11:54.982Z,18.60
2018-07-02T03:14:28.548Z,18.60
2018-07-02T03:17:03.785Z,18.50
2018-07-02T03:19:36.290Z,18.50
2018-07-02T03:22:12.337Z,18.50
2018-07-02T03:24:47.798Z,18.50
2018-07-02T03:27:24.161Z,18.50
2018-07-02T03:29:59.655Z,18.40
2018-07-02T03:32:34.339Z,18.40
2018-07-02T03:35:08.856Z,18.40
2018-07-02T03:37:43.174Z,18.30
2018-07-02T03:40:17.389Z,18.30
2018-07-02T03:42:52.637Z,18.30
2018-07-02T03:45:26.849Z,18.30
2018-07-02T03:47:59.324Z,18.30
2018-07-02T03:50:33.330Z,18.20
2018-07-02T03:53:07.550Z,18.20
2018-07-02T03:55:41.250Z,18.20
2018-07-02T03:58:14.958Z,18.20
2018-07-02T04:00:49.580Z,18.20
2018-07-02T04:03:23.795Z,18.20
2018-07-02T04:05:56.988Z,18.20
2018-07-02T04:08:30.281Z,18.20
2018-07-02T04:11:03.370Z,18.20
2018-07-02T04:13:49.542Z,18.30
2018-07-02T04:16:23.882Z,18.30
2018-07-02T04:19:02.403Z,18.30
2018-07-02T04:21:35.699Z,18.30
2018-07-02T04:24:21.791Z,18.30
2018-07-02T04:26:54.964Z,18.40
2018-07-02T04:29:42.716Z,18.40
2018-07-02T04:32:15.709Z,18.40
2018-07-02T04:34:48.897Z,18.50
2018-07-02T04:37:22.078Z,18.50
2018-07-02T04:39:58.315Z,18.50
2018-07-02T04:42:32.980Z,18.60
2018-07-02T04:45:08.197Z,18.70
2018-07-02T04:47:43.178Z,18.80
2018-07-02T04:50:18.448Z,18.80
2018-07-02T04:52:52.911Z,18.80
2018-07-02T04:55:26.513Z,18.80
2018-07-02T04:58:01.270Z,18.90
2018-07-02T05:00:34.641Z,18.90
2018-07-02T05:03:07.931Z,19.00
2018-07-02T05:05:42.124Z,19.10
2018-07-02T05:08:16.875Z,19.20
2018-07-02T05:10:52.567Z,19.30
2018-07-02T05:13:25.896Z,19.30
2018-07-02T05:15:59.728Z,19.40
2018-07-02T05:18:34.865Z,19.40
2018-07-02T05:21:08.773Z,19.50
2018-07-02T05:23:41.949Z,19.60
2018-07-02T05:26:17.545Z,19.70
2018-07-02T05:29:00.520Z,19.80
2018-07-02T05:31:35.058Z,19.80
2018-07-02T05:34:09.275Z,20.00
2018-07-02T05:36:46.478Z,20.10
2018-07-02T05:39:29.891Z,20.20
2018-07-02T05:42:03.997Z,20.30
2018-07-02T05:44:37.814Z,20.30
2018-07-02T05:47:11.720Z,20.50
2018-07-02T05:49:45.935Z,20.60
2018-07-02T05:52:20.463Z,20.60
2018-07-02T05:54:54.484Z,20.70
2018-07-02T05:57:28.685Z,20.90
2018-07-02T06:00:10.874Z,21.00
2018-07-02T06:02:45.066Z,21.10
2018-07-02T06:05:18.369Z,21.20
2018-07-02T06:10:35.330Z,21.50
2018-07-02T06:13:20.270Z,21.70
2018-07-02T06:15:55.333Z,21.90
2018-07-02T06:18:27.910Z,22.10
2018-07-02T06:21:02.111Z,22.30
2018-07-02T06:23:36.650Z,22.50
2018-07-02T06:26:10.868Z,22.80
2018-07-02T06:28:59.006Z,23.00
2018-07-02T06:31:33.193Z,23.10
2018-07-02T06:34:10.925Z,23.50
2018-07-02T06:36:44.931Z,23.70
2018-07-02T06:39:19.941Z,23.90
2018-07-02T06:41:54.595Z,24.10
2018-07-02T06:44:30.650Z,24.40
2018-07-02T06:47:04.838Z,24.60
2018-07-02T06:49:40.209Z,24.80
2018-07-02T06:52:13.605Z,25.00
2018-07-02T06:54:48.743Z,25.10
2018-07-02T06:57:29.312Z,25.40
2018-07-02T07:00:13.201Z,25.60
2018-07-02T07:02:48.089Z,25.60
2018-07-02T07:05:22.758Z,26.10
2018-07-02T07:07:58.356Z,26.50
2018-07-02T07:10:31.958Z,26.60
2018-07-02T07:13:05.871Z,26.60
2018-07-02T07:15:40.030Z,26.80
2018-07-02T07:18:15.210Z,27.00
2018-07-02T07:20:49.846Z,27.30
2018-07-02T07:23:25.289Z,27.60
2018-07-02T07:26:01.119Z,27.80
2018-07-02T07:28:34.956Z,28.00
2018-07-02T07:31:08.034Z,28.30
2018-07-02T07:33:42.154Z,28.40
2018-07-02T07:36:16.269Z,28.40
2018-07-02T07:38:50.790Z,28.40
2018-07-02T07:41:25.007Z,28.40
2018-07-02T07:44:00.655Z,28.60
2018-07-02T07:46:36.408Z,28.60
2018-07-02T07:49:12.539Z,28.60
2018-07-02T07:51:46.812Z,28.70
2018-07-02T07:54:20.152Z,28.70
2018-07-02T07:56:55.525Z,28.80
2018-07-02T07:59:30.090Z,28.90
2018-07-02T08:02:07.032Z,28.90
2018-07-02T08:04:41.552Z,29.20
2018-07-02T08:07:16.689Z,29.00
2018-07-02T08:09:56.435Z,29.10
2018-07-02T08:12:30.142Z,29.10
2018-07-02T08:15:04.666Z,29.20
2018-07-02T08:17:40.212Z,29.20
2018-07-02T08:20:16.267Z,29.30
2018-07-02T08:22:51.310Z,29.40
2018-07-02T08:25:26.852Z,29.50
2018-07-02T08:28:02.303Z,29.60
2018-07-02T08:30:36.082Z,29.60
2018-07-02T08:33:11.346Z,29.60
2018-07-02T08:35:44.838Z,29.60
2018-07-02T08:38:19.055Z,29.70
2018-07-02T08:40:53.783Z,29.60
2018-07-02T08:43:28.616Z,29.80
2018-07-02T08:46:03.652Z,29.90
2018-07-02T08:48:40.321Z,29.80
2018-07-02T08:51:14.315Z,29.80
2018-07-02T08:53:47.728Z,30.00
2018-07-02T08:56:21.945Z,30.10
2018-07-02T08:58:58.060Z,30.30
2018-07-02T09:01:47.476Z,30.40
2018-07-02T09:04:22.315Z,30.50
2018-07-02T09:06:55.990Z,30.60
2018-07-02T09:09:30.533Z,30.90
2018-07-02T09:12:12.739Z,31.00
2018-07-02T09:14:48.357Z,31.20
2018-07-02T09:17:22.500Z,31.50
2018-07-02T09:19:55.474Z,31.60
2018-07-02T09:22:28.986Z,31.60
2018-07-02T09:25:03.944Z,31.60
2018-07-02T09:27:38.859Z,31.80
2018-07-02T09:30:13.375Z,31.80
2018-07-02T09:32:47.181Z,31.80
2018-07-02T09:35:21.083Z,31.90
2018-07-02T09:37:55.509Z,31.90
2018-07-02T09:40:29.720Z,32.00
2018-07-02T09:43:04.352Z,32.20
2018-07-02T09:45:38.874Z,32.20
2018-07-02T09:48:11.861Z,32.30
2018-07-02T09:50:47.101Z,32.30
2018-07-02T09:53:22.067Z,32.30
2018-07-02T09:55:58.536Z,32.30
2018-07-02T09:58:32.718Z,32.50
2018-07-02T10:01:07.548Z,32.60
2018-07-02T10:03:40.222Z,32.70
2018-07-02T10:09:16.103Z,32.80
2018-07-02T10:11:52.575Z,32.90
2018-07-02T10:14:27.376Z,32.90
2018-07-02T10:17:01.521Z,32.80
2018-07-02T10:19:35.224Z,33.00
2018-07-02T10:22:22.440Z,33.00
2018-07-02T10:24:55.636Z,32.90
2018-07-02T10:27:30.698Z,32.80
2018-07-02T10:32:54.283Z,32.70
2018-07-02T10:35:31.234Z,32.70
2018-07-02T10:38:06.067Z,32.70
2018-07-02T10:40:41.406Z,33.00
2018-07-02T10:43:14.701Z,33.00
2018-07-02T10:45:50.043Z,33.00
2018-07-02T10:48:25.798Z,33.00
2018-07-02T10:50:58.468Z,33.10
2018-07-02T10:53:33.445Z,33.10
2018-07-02T10:56:08.239Z,33.20
2018-07-02T10:58:43.068Z,33.20
2018-07-02T11:01:17.673Z,33.20
2018-07-02T11:03:52.008Z,33.40
2018-07-02T11:06:26.224Z,33.40
2018-07-02T11:09:02.799Z,33.30
2018-07-02T11:11:37.936Z,33.30
2018-07-02T11:14:13.175Z,33.30
2018-07-02T11:16:47.376Z,33.30
2018-07-02T11:19:22.017Z,33.40
2018-07-02T11:21:56.033Z,33.40
2018-07-02T11:24:32.702Z,33.40
2018-07-02T11:27:06.593Z,33.50
2018-07-02T11:29:41.952Z,33.60
2018-07-02T11:32:31.083Z,33.70
2018-07-02T11:35:06.564Z,33.80
2018-07-02T11:37:41.600Z,33.90
2018-07-02T11:40:14.278Z,33.90
2018-07-02T11:42:48.266Z,33.90
2018-07-02T11:45:22.581Z,34.00
2018-07-02T11:47:55.873Z,34.00
2018-07-02T11:50:30.222Z,34.20
2018-07-02T11:53:04.745Z,34.30
2018-07-02T11:55:39.985Z,34.20
2018-07-02T11:58:15.127Z,34.30
2018-07-02T12:00:48.936Z,34.20
2018-07-02T12:03:24.681Z,34.30
2018-07-02T12:06:02.758Z,34.40
2018-07-02T12:08:38.052Z,34.30
2018-07-02T12:11:13.165Z,34.40
2018-07-02T12:13:46.766Z,34.40
2018-07-02T12:16:23.132Z,34.50
2018-07-02T12:18:58.373Z,34.40
2018-07-02T12:21:31.974Z,34.40
2018-07-02T12:24:05.760Z,34.40
2018-07-02T12:26:39.064Z,34.20
2018-07-02T12:29:29.336Z,34.00
2018-07-02T12:32:04.710Z,33.90
2018-07-02T12:34:40.846Z,33.80
2018-07-02T12:37:15.195Z,33.70
2018-07-02T12:39:51.351Z,33.70
2018-07-02T12:42:25.754Z,33.60
2018-07-02T12:45:00.400Z,33.60
2018-07-02T12:47:33.486Z,33.50
2018-07-02T12:50:06.781Z,33.50
2018-07-02T12:52:40.179Z,33.40
2018-07-02T12:55:15.012Z,33.50
2018-07-02T12:57:49.530Z,33.50
2018-07-02T13:00:24.649Z,33.50
2018-07-02T13:03:00.215Z,33.40
2018-07-02T13:05:35.352Z,33.40
2018-07-02T13:08:08.860Z,33.30
2018-07-02T13:10:44.697Z,33.20
2018-07-02T13:13:18.932Z,33.20
2018-07-02T13:15:53.957Z,33.20
2018-07-02T13:18:27.865Z,33.20
2018-07-02T13:21:09.966Z,33.20
2018-07-02T13:23:43.567Z,33.10
2018-07-02T13:26:17.578Z,33.20
2018-07-02T13:28:51.793Z,33.20
2018-07-02T13:31:25.292Z,33.30
2018-07-02T13:36:42.794Z,33.20
2018-07-02T13:39:16.701Z,33.30
2018-07-02T13:41:51.097Z,33.20
2018-07-02T13:44:26.919Z,33.10
2018-07-02T13:47:00.828Z,33.10
2018-07-02T13:49:35.974Z,33.10
2018-07-02T13:52:10.181Z,33.10
2018-07-02T13:54:43.988Z,33.20
2018-07-02T13:57:18.511Z,33.20
2018-07-02T13:59:52.624Z,33.30
2018-07-02T14:02:26.660Z,33.30
2018-07-02T14:05:00.544Z,33.40
2018-07-02T14:07:36.296Z,33.50
2018-07-02T14:10:10.997Z,33.50
2018-07-02T14:12:45.200Z,33.70
2018-07-02T14:15:21.605Z,33.70
2018-07-02T14:17:56.852Z,33.60
2018-07-02T14:20:30.250Z,33.70
2018-07-02T14:23:03.946Z,33.70
2018-07-02T14:25:38.776Z,33.70
2018-07-02T14:28:12.481Z,33.70
2018-07-02T14:30:48.028Z,33.90
2018-07-02T14:33:22.441Z,33.90
2018-07-02T14:35:59.720Z,33.90
2018-07-02T14:38:33.336Z,33.90
2018-07-02T14:41:07.860Z,34.00
2018-07-02T14:43:42.690Z,34.00
2018-07-02T14:46:18.953Z,33.90
2018-07-02T14:48:53.170Z,33.90
2018-07-02T14:51:27.358Z,33.90
2018-07-02T14:54:01.573Z,33.80
2018-07-02T14:56:36.943Z,33.80
2018-07-02T14:59:11.164Z,33.80
2018-07-02T15:01:48.145Z,33.70
2018-07-02T15:04:22.569Z,33.70
2018-07-02T15:06:58.837Z,33.70
2018-07-02T15:09:33.661Z,33.70
2018-07-02T15:12:07.871Z,33.80
2018-07-02T15:14:41.780Z,33.70
2018-07-02T15:17:15.995Z,33.70
2018-07-02T15:19:52.173Z,33.70
2018-07-02T15:22:26.682Z,33.60
2018-07-02T15:25:00.895Z,33.60
2018-07-02T15:27:36.858Z,33.50
2018-07-02T15:30:10.458Z,33.50
2018-07-02T15:32:43.850Z,33.50
2018-07-02T15:35:18.077Z,33.40
2018-07-02T15:37:53.409Z,33.30
2018-07-02T15:40:27.624Z,33.20
2018-07-02T15:43:01.020Z,33.00
2018-07-02T15:45:36.195Z,32.90
2018-07-02T15:48:09.493Z,32.90
2018-07-02T15:50:43.770Z,32.90
2018-07-02T15:53:17.064Z,32.90
2018-07-02T15:55:50.154Z,32.90
2018-07-02T15:58:24.677Z,32.80
2018-07-02T16:00:59.712Z,32.80
2018-07-02T16:03:32.880Z,32.70
2018-07-02T16:06:06.511Z,32.70
2018-07-02T16:08:39.499Z,32.70
2018-07-02T16:11:14.732Z,32.80
2018-07-02T16:13:49.952Z,32.70
2018-07-02T16:16:25.417Z,32.70
2018-07-02T16:19:00.555Z,32.70
2018-07-02T16:21:34.773Z,32.70
2018-07-02T16:24:10.112Z,32.70
2018-07-02T16:26:45.557Z,32.60
2018-07-02T16:29:18.647Z,32.50
2018-07-02T16:31:53.172Z,32.40
2018-07-02T16:34:30.127Z,32.40
2018-07-02T16:37:05.493Z,32.30
2018-07-02T16:39:39.614Z,32.30
2018-07-02T16:42:30.206Z,32.10
2018-07-02T16:45:05.343Z,32.00
2018-07-02T16:47:38.642Z,31.90
2018-07-02T16:50:11.812Z,31.90
2018-07-02T16:56:17.296Z,31.70
2018-07-02T16:58:50.913Z,31.70
2018-07-02T17:15:12.559Z,31.30
2018-07-02T17:17:41.030Z,31.20
2018-07-02T17:20:09.430Z,31.10
2018-07-02T17:22:37.580Z,30.90
2018-07-02T17:25:05.697Z,30.90
2018-07-02T17:27:33.801Z,30.80
2018-07-02T17:30:04.546Z,30.70
2018-07-02T17:32:40.188Z,30.60
2018-07-02T17:35:12.409Z,30.50
2018-07-02T17:37:40.569Z,30.40
2018-07-02T17:40:22.201Z,30.30
2018-07-02T17:42:50.912Z,30.20
2018-07-02T17:45:19.409Z,30.10
2018-07-02T17:47:48.058Z,30.10
2018-07-02T17:50:15.842Z,30.00
2018-07-02T17:52:43.682Z,29.90
2018-07-02T17:55:11.620Z,29.90
2018-07-02T17:57:39.436Z,29.90
2018-07-02T18:00:07.833Z,29.80
2018-07-02T18:02:37.191Z,29.80
2018-07-02T18:05:06.450Z,29.70
2018-07-02T18:07:34.304Z,29.70
2018-07-02T18:10:16.010Z,29.70
2018-07-02T18:16:50.043Z,29.60
2018-07-02T18:19:45.321Z,29.60
2018-07-02T18:23:21.645Z,29.60
2018-07-02T18:26:12.910Z,29.50
2018-07-02T18:28:43.521Z,29.50
2018-07-02T18:31:40.275Z,29.40
2018-07-02T18:34:09.987Z,29.50
2018-07-02T18:36:41.453Z,29.40
2018-07-02T18:39:13.819Z,29.40
2018-07-02T18:41:44.037Z,29.30
2018-07-02T18:44:16.425Z,29.30
2018-07-02T18:46:44.284Z,29.20
2018-07-02T18:49:18.421Z,29.10
2018-07-02T18:51:48.810Z,29.10
2018-07-02T18:54:17.011Z,29.00
2018-07-02T18:56:56.000Z,28.90
2018-07-02T18:59:28.693Z,28.80
2018-07-02T19:01:58.812Z,28.80
2018-07-02T19:04:58.528Z,28.70
2018-07-02T19:07:29.467Z,28.60
2018-07-02T19:09:59.586Z,28.50
2018-07-02T19:12:41.175Z,28.40
2018-07-02T19:15:21.137Z,28.40
2018-07-02T19:18:07.937Z,28.30
2018-07-02T19:20:38.467Z,28.10
2018-07-02T19:23:08.457Z,28.10
2018-07-02T19:25:39.019Z,28.00
2018-07-02T19:28:07.939Z,27.90
2018-07-02T19:30:36.932Z,27.80
2018-07-02T19:33:05.768Z,27.80
2018-07-02T19:35:34.933Z,27.70
2018-07-02T19:38:03.964Z,27.70
2018-07-02T19:40:50.883Z,27.80
2018-07-02T19:44:06.142Z,27.70
2018-07-02T19:46:36.458Z,27.60
2018-07-02T19:51:54.137Z,27.40
2018-07-02T19:54:53.401Z,27.20
2018-07-02T19:57:23.373Z,27.10
2018-07-02T19:59:59.403Z,27.00
2018-07-02T20:02:28.928Z,27.00
2018-07-02T20:04:58.442Z,26.90
2018-07-02T20:07:28.655Z,26.80
2018-07-02T20:09:58.271Z,26.70
2018-07-02T20:12:28.310Z,26.80
2018-07-02T20:15:33.327Z,26.70
2018-07-02T20:18:04.464Z,26.60
2018-07-02T20:20:35.299Z,26.60
2018-07-02T20:23:06.217Z,26.50
2018-07-02T20:25:38.965Z,26.40
2018-07-02T20:28:26.116Z,26.40
2018-07-02T20:30:59.097Z,26.30
2018-07-02T20:33:30.372Z,26.30
2018-07-02T20:36:01.824Z,26.20
2018-07-02T20:38:33.276Z,26.10
2018-07-02T20:41:06.377Z,26.00
2018-07-02T20:43:39.632Z,25.90
2018-07-02T20:46:12.423Z,25.80
2018-07-02T20:48:53.596Z,25.70
2018-07-02T20:51:27.502Z,25.70
2018-07-02T20:54:01.923Z,25.70
2018-07-02T20:56:35.525Z,25.60
2018-07-02T20:59:08.676Z,25.60
2018-07-02T21:01:39.374Z,25.60
2018-07-02T21:04:10.285Z,25.60
2018-07-02T21:06:43.755Z,25.60
2018-07-02T21:09:16.367Z,25.50
2018-07-02T21:11:49.786Z,25.50
2018-07-02T21:14:25.338Z,25.40
2018-07-02T21:16:58.326Z,25.40
2018-07-02T21:19:32.440Z,25.30
2018-07-02T21:59:55.654Z,24.80
2018-07-02T22:02:26.793Z,24.70
2018-07-02T22:05:08.616Z,24.60
2018-07-02T22:07:41.837Z,24.60
2018-07-02T22:10:31.707Z,24.50
2018-07-02T22:13:04.808Z,24.50
2018-07-02T22:15:37.797Z,24.50
2018-07-02T22:18:10.987Z,24.40
2018-07-02T22:20:43.845Z,24.40
2018-07-02T22:23:17.061Z,24.40
2018-07-02T22:25:49.926Z,24.30
2018-07-02T22:28:23.345Z,24.30
2018-07-02T22:30:56.231Z,24.20
2018-07-02T22:33:29.940Z,24.20
2018-07-02T22:36:02.096Z,24.20
2018-07-02T22:38:35.391Z,24.20
2018-07-02T22:41:08.993Z,24.20
2018-07-02T22:43:42.177Z,24.20
2018-07-02T22:46:16.828Z,24.20
2018-07-02T22:49:01.820Z,24.20
2018-07-02T22:51:35.273Z,24.10
2018-07-02T22:54:08.580Z,24.10
2018-07-02T22:56:41.320Z,23.90
2018-07-02T23:38:06.991Z,23.40
2018-07-02T23:55:03.948Z,23.20
